Wetterdaten: Woche 01.12.25 - 07.12.25 (KW49)
Datum Zeit Temp. Aussen Temp. o. S. Temp +5cm Feuchte Auss Luftdruck Regen Sonnenschein Regendauer Solar Windböen Empfang
01.12.2025 00:00 5,4 °C 5,0 °C 1,7 °C 89 % 1018,1 hPa 0,0 l/m² 0,00 h 0,00 h 0 W/m² 9,1 km/h (2 Bft) 96,04 %
01.12.2025 01:00 5,1 °C 4,1 °C 0,9 °C 88 % 1018,1 hPa 0,0 l/m² 0,00 h 0,00 h 0 W/m² 10,7 km/h (2 Bft) 97,96 %
01.12.2025 02:00 4,2 °C 3,3 °C 0,1 °C 90 % 1018,2 hPa 0,0 l/m² 0,00 h 0,00 h 0 W/m² 11,4 km/h (2 Bft) 96,26 %
01.12.2025 03:00 3,6 °C 2,5 °C -0,5 °C 91 % 1018,1 hPa 0,0 l/m² 0,00 h 0,00 h 0 W/m² 7,4 km/h (2 Bft) 98,21 %
01.12.2025 04:00 2,8 °C 1,8 °C -1,2 °C 91 % 1017,9 hPa 0,0 l/m² 0,00 h 0,00 h 0 W/m² 6,5 km/h (2 Bft) 96,45 %
01.12.2025 05:00 2,2 °C 1,1 °C -1,7 °C 92 % 1017,7 hPa 0,0 l/m² 0,00 h 0,00 h 0 W/m² 7,7 km/h (2 Bft) 95,89 %
01.12.2025 06:00 2,0 °C 1,2 °C -1,7 °C 93 % 1017,8 hPa 0,0 l/m² 0,00 h 0,00 h 0 W/m² 8,5 km/h (2 Bft) 98,36 %
01.12.2025 07:00 1,6 °C 0,8 °C -2,1 °C 94 % 1017,7 hPa 0,0 l/m² 0,00 h 0,00 h 0 W/m² 10,5 km/h (2 Bft) 96,61 %
01.12.2025 08:00 1,4 °C 0,8 °C -2,1 °C 94 % 1017,7 hPa 0,0 l/m² 0,00 h 0,00 h 16 W/m² 12,7 km/h (3 Bft) 96,95 %
01.12.2025 09:00 2,0 °C 2,1 °C -1,3 °C 95 % 1017,6 hPa 0,0 l/m² 0,00 h 0,00 h 47 W/m² 15,7 km/h (3 Bft) 97,05 %
01.12.2025 10:00 3,2 °C 3,7 °C -0,1 °C 95 % 1017,4 hPa 0,0 l/m² 0,50 h 0,00 h 129 W/m² 15,8 km/h (3 Bft) 95,51 %
01.12.2025 11:00 5,1 °C 6,1 °C 1,2 °C 90 % 1016,6 hPa 0,0 l/m² 0,37 h 0,00 h 140 W/m² 14,9 km/h (3 Bft) 94,92 %
01.12.2025 12:00 6,8 °C 10,1 °C 2,4 °C 83 % 1015,8 hPa 0,0 l/m² 0,70 h 0,00 h 230 W/m² 16,9 km/h (3 Bft) 98,56 %
01.12.2025 13:00 7,2 °C 7,9 °C 2,9 °C 79 % 1015,3 hPa 0,0 l/m² 0,40 h 0,00 h 148 W/m² 18,2 km/h (3 Bft) 96,46 %
01.12.2025 14:00 7,8 °C 9,0 °C 2,8 °C 77 % 1014,5 hPa 0,0 l/m² 0,70 h 0,00 h 138 W/m² 16,0 km/h (3 Bft) 96,47 %
01.12.2025 15:00 7,2 °C 6,5 °C 2,4 °C 76 % 1013,8 hPa 0,0 l/m² 0,10 h 0,00 h 45 W/m² 16,5 km/h (3 Bft) 98,00 %
01.12.2025 16:00 6,3 °C 5,6 °C 1,7 °C 79 % 1013,5 hPa 0,0 l/m² 0,00 h 0,00 h 11 W/m² 21,1 km/h (4 Bft) 97,15 %
01.12.2025 17:00 6,0 °C 5,3 °C 1,6 °C 80 % 1013,3 hPa 0,0 l/m² 0,00 h 0,00 h 0 W/m² 20,4 km/h (4 Bft) 97,43 %
01.12.2025 18:00 5,7 °C 5,0 °C 1,3 °C 79 % 1013,0 hPa 0,0 l/m² 0,00 h 0,00 h 0 W/m² 23,4 km/h (4 Bft) 98,36 %
01.12.2025 19:00 5,5 °C 4,7 °C 1,1 °C 78 % 1012,5 hPa 0,0 l/m² 0,00 h 0,00 h 0 W/m² 22,2 km/h (4 Bft) 96,11 %
01.12.2025 20:00 5,3 °C 4,4 °C 1,1 °C 79 % 1011,9 hPa 0,0 l/m² 0,00 h 0,00 h 0 W/m² 24,3 km/h (4 Bft) 97,31 %
01.12.2025 21:00 5,1 °C 4,4 °C 0,6 °C 80 % 1011,5 hPa 0,0 l/m² 0,00 h 0,00 h 0 W/m² 28,1 km/h (4 Bft) 99,34 %
01.12.2025 22:00 4,9 °C 4,4 °C 0,6 °C 79 % 1011,1 hPa 0,0 l/m² 0,00 h 0,00 h 0 W/m² 26,8 km/h (4 Bft) 95,20 %
01.12.2025 23:00 5,0 °C 4,4 °C 0,6 °C 78 % 1010,7 hPa 0,0 l/m² 0,00 h 0,00 h 0 W/m² 25,7 km/h (4 Bft) 97,60 %
02.12.2025 00:00 5,2 °C 4,4 °C 0,7 °C 75 % 1010,4 hPa 0,0 l/m² 0,00 h 0,00 h 0 W/m² 24,9 km/h (4 Bft) 97,24 %
02.12.2025 01:00 5,0 °C 4,2 °C 0,3 °C 76 % 1010,0 hPa 0,0 l/m² 0,00 h 0,00 h 0 W/m² 23,2 km/h (4 Bft) 95,90 %
02.12.2025 02:00 4,5 °C 3,6 °C -0,6 °C 82 % 1009,7 hPa 0,0 l/m² 0,00 h 0,23 h 0 W/m² 22,6 km/h (4 Bft) 98,38 %
02.12.2025 03:00 4,0 °C 3,3 °C -0,8 °C 88 % 1009,3 hPa 0,2 l/m² 0,00 h 0,03 h 0 W/m² 25,7 km/h (4 Bft) 95,82 %
02.12.2025 04:00 4,0 °C 3,3 °C -0,1 °C 89 % 1009,0 hPa 0,0 l/m² 0,00 h 0,13 h 0 W/m² 24,7 km/h (4 Bft) 94,87 %
02.12.2025 05:00 3,9 °C 3,3 °C -0,7 °C 91 % 1008,8 hPa 0,0 l/m² 0,00 h 0,07 h 0 W/m² 25,7 km/h (4 Bft) 98,10 %
02.12.2025 06:00 3,9 °C 3,1 °C -0,7 °C 93 % 1008,6 hPa 0,7 l/m² 0,00 h 0,40 h 0 W/m² 23,1 km/h (4 Bft) 98,11 %
02.12.2025 07:00 3,8 °C 3,0 °C -0,7 °C 94 % 1008,8 hPa 0,2 l/m² 0,00 h 0,07 h 0 W/m² 23,2 km/h (4 Bft) 96,82 %
02.12.2025 08:00 3,9 °C 3,3 °C -0,6 °C 95 % 1009,3 hPa 0,2 l/m² 0,00 h 0,27 h 4 W/m² 23,7 km/h (4 Bft) 97,69 %
02.12.2025 09:00 4,1 °C 3,6 °C -0,4 °C 95 % 1009,8 hPa 0,0 l/m² 0,00 h 0,00 h 23 W/m² 22,3 km/h (4 Bft) 98,28 %
02.12.2025 10:00 4,5 °C 4,3 °C 0,1 °C 95 % 1010,0 hPa 0,0 l/m² 0,00 h 0,00 h 44 W/m² 18,3 km/h (3 Bft) 96,03 %
02.12.2025 11:00 5,2 °C 5,2 °C 1,0 °C 95 % 1009,9 hPa 0,0 l/m² 0,00 h 0,00 h 78 W/m² 16,6 km/h (3 Bft) 95,82 %
02.12.2025 12:00 5,8 °C 5,6 °C 1,7 °C 94 % 1010,0 hPa 0,0 l/m² 0,00 h 0,00 h 92 W/m² 17,6 km/h (3 Bft) 97,02 %
02.12.2025 13:00 6,2 °C 6,1 °C 2,2 °C 93 % 1010,1 hPa 0,0 l/m² 0,00 h 0,00 h 87 W/m² 15,2 km/h (3 Bft) 93,23 %
02.12.2025 14:00 6,3 °C 6,1 °C 2,2 °C 91 % 1010,2 hPa 0,0 l/m² 0,00 h 0,00 h 53 W/m² 15,1 km/h (3 Bft) 98,44 %
02.12.2025 15:00 6,3 °C 5,6 °C 2,2 °C 91 % 1010,4 hPa 0,0 l/m² 0,00 h 0,00 h 16 W/m² 12,5 km/h (3 Bft) 96,06 %
02.12.2025 16:00 6,3 °C 5,6 °C 2,2 °C 91 % 1010,6 hPa 0,0 l/m² 0,00 h 0,00 h 6 W/m² 13,7 km/h (3 Bft) 95,12 %
02.12.2025 17:00 6,3 °C 5,6 °C 2,2 °C 90 % 1010,9 hPa 0,0 l/m² 0,00 h 0,00 h 0 W/m² 16,1 km/h (3 Bft) 98,00 %
02.12.2025 18:00 6,2 °C 5,6 °C 2,0 °C 90 % 1011,2 hPa 0,0 l/m² 0,00 h 0,00 h 0 W/m² 13,6 km/h (3 Bft) 97,17 %
02.12.2025 19:00 6,0 °C 5,1 °C 1,7 °C 92 % 1011,5 hPa 0,0 l/m² 0,00 h 0,00 h 0 W/m² 12,9 km/h (3 Bft) 96,99 %
02.12.2025 20:00 5,9 °C 5,4 °C 1,8 °C 93 % 1011,6 hPa 0,0 l/m² 0,00 h 0,00 h 0 W/m² 10,8 km/h (2 Bft) 98,97 %
02.12.2025 21:00 6,1 °C 5,6 °C 2,0 °C 94 % 1011,7 hPa 0,0 l/m² 0,00 h 0,00 h 0 W/m² 9,0 km/h (2 Bft) 96,65 %
02.12.2025 22:00 6,2 °C 5,6 °C 2,2 °C 95 % 1011,7 hPa 0,0 l/m² 0,00 h 0,00 h 0 W/m² 10,7 km/h (2 Bft) 97,49 %
02.12.2025 23:00 6,2 °C 5,6 °C 2,2 °C 96 % 1011,9 hPa 0,0 l/m² 0,00 h 0,00 h 0 W/m² 9,4 km/h (2 Bft) 97,56 %
03.12.2025 00:00 6,4 °C 5,9 °C 2,4 °C 96 % 1012,0 hPa 0,0 l/m² 0,00 h 0,00 h 0 W/m² 9,8 km/h (2 Bft) 97,17 %
03.12.2025 01:00 6,5 °C 6,1 °C 2,8 °C 96 % 1012,0 hPa 0,0 l/m² 0,00 h 0,00 h 0 W/m² 9,5 km/h (2 Bft) 97,23 %
03.12.2025 02:00 6,3 °C 5,6 °C 2,2 °C 96 % 1012,0 hPa 0,0 l/m² 0,00 h 0,00 h 0 W/m² 6,3 km/h (2 Bft) 96,77 %
03.12.2025 03:00 6,2 °C 5,7 °C 2,3 °C 96 % 1011,9 hPa 0,0 l/m² 0,00 h 0,00 h 0 W/m² 6,7 km/h (2 Bft) 98,28 %
03.12.2025 04:00 6,3 °C 5,7 °C 2,5 °C 96 % 1011,8 hPa 0,0 l/m² 0,00 h 0,00 h 0 W/m² 5,6 km/h (1 Bft) 95,85 %
03.12.2025 05:00 6,3 °C 5,6 °C 2,2 °C 96 % 1011,6 hPa 0,0 l/m² 0,00 h 0,00 h 0 W/m² 6,4 km/h (2 Bft) 98,18 %
03.12.2025 06:00 6,2 °C 5,6 °C 2,4 °C 96 % 1011,8 hPa 0,0 l/m² 0,00 h 0,00 h 0 W/m² 8,5 km/h (2 Bft) 97,07 %
03.12.2025 07:00 6,2 °C 5,6 °C 2,4 °C 95 % 1011,9 hPa 0,0 l/m² 0,00 h 0,17 h 0 W/m² 9,0 km/h (2 Bft) 96,93 %
03.12.2025 08:00 6,2 °C 5,6 °C 2,2 °C 95 % 1012,2 hPa 0,2 l/m² 0,00 h 0,00 h 8 W/m² 8,8 km/h (2 Bft) 98,05 %
03.12.2025 09:00 6,3 °C 6,0 °C 2,6 °C 94 % 1012,4 hPa 0,0 l/m² 0,00 h 0,00 h 32 W/m² 9,8 km/h (2 Bft) 96,77 %
03.12.2025 10:00 6,6 °C 6,2 °C 2,8 °C 94 % 1012,7 hPa 0,0 l/m² 0,00 h 0,00 h 37 W/m² 10,9 km/h (2 Bft) 95,86 %
03.12.2025 11:00 6,8 °C 6,1 °C 2,8 °C 93 % 1012,7 hPa 0,0 l/m² 0,00 h 0,00 h 26 W/m² 7,5 km/h (2 Bft) 99,39 %
03.12.2025 12:00 6,9 °C 6,7 °C 3,2 °C 93 % 1012,6 hPa 0,0 l/m² 0,00 h 0,00 h 33 W/m² 7,3 km/h (2 Bft) 95,02 %
03.12.2025 13:00 7,1 °C 6,8 °C 3,3 °C 93 % 1012,6 hPa 0,0 l/m² 0,00 h 0,00 h 40 W/m² 5,3 km/h (1 Bft) 98,07 %
03.12.2025 14:00 7,4 °C 7,2 °C 3,3 °C 93 % 1012,4 hPa 0,0 l/m² 0,00 h 0,00 h 30 W/m² 5,2 km/h (1 Bft) 96,62 %
03.12.2025 15:00 7,6 °C 6,9 °C 3,4 °C 93 % 1012,1 hPa 0,0 l/m² 0,00 h 0,00 h 11 W/m² 2,2 km/h (1 Bft) 97,43 %
03.12.2025 16:00 7,6 °C 6,7 °C 3,3 °C 93 % 1012,4 hPa 0,0 l/m² 0,00 h 0,00 h 0 W/m² 2,1 km/h (1 Bft) 97,71 %
03.12.2025 17:00 7,5 °C 6,7 °C 3,3 °C 94 % 1012,6 hPa 0,0 l/m² 0,00 h 0,00 h 0 W/m² 0,0 km/h (0 Bft) 98,91 %
03.12.2025 18:00 7,3 °C 6,7 °C 3,3 °C 94 % 1012,5 hPa 0,0 l/m² 0,00 h 0,00 h 0 W/m² 0,0 km/h (0 Bft) 94,93 %
03.12.2025 19:00 7,2 °C 6,5 °C 3,1 °C 95 % 1012,6 hPa 0,0 l/m² 0,00 h 0,07 h 0 W/m² 0,0 km/h (0 Bft) 99,02 %
03.12.2025 20:00 6,8 °C 5,9 °C 2,5 °C 95 % 1012,5 hPa 0,5 l/m² 0,00 h 0,55 h 0 W/m² 6,6 km/h (2 Bft) 97,35 %
03.12.2025 21:00 6,4 °C 5,6 °C 2,2 °C 96 % 1012,5 hPa 1,0 l/m² 0,00 h 0,53 h 0 W/m² 6,5 km/h (2 Bft) 95,83 %
03.12.2025 22:00 6,2 °C 5,6 °C 2,2 °C 96 % 1012,5 hPa 1,0 l/m² 0,00 h 0,27 h 0 W/m² 6,9 km/h (2 Bft) 98,72 %
03.12.2025 23:00 6,0 °C 5,0 °C 2,2 °C 97 % 1012,3 hPa 1,0 l/m² 0,00 h 0,47 h 0 W/m² 3,9 km/h (1 Bft) 97,08 %
04.12.2025 00:00 5,8 °C 5,0 °C 2,2 °C 97 % 1011,9 hPa 0,7 l/m² 0,00 h 0,37 h 0 W/m² 4,4 km/h (1 Bft) 92,51 %
04.12.2025 01:00 5,6 °C 5,0 °C 1,8 °C 98 % 1011,3 hPa 0,2 l/m² 0,00 h 0,07 h 0 W/m² 10,0 km/h (2 Bft) 94,95 %
04.12.2025 02:00 5,5 °C 5,0 °C 1,7 °C 98 % 1010,8 hPa 0,0 l/m² 0,00 h 0,00 h 0 W/m² 10,0 km/h (2 Bft) 99,26 %
04.12.2025 03:00 5,3 °C 4,6 °C 1,7 °C 98 % 1010,5 hPa 0,0 l/m² 0,00 h 0,00 h 0 W/m² 10,6 km/h (2 Bft) 96,51 %
04.12.2025 04:00 5,1 °C 4,4 °C 1,7 °C 98 % 1009,9 hPa 0,0 l/m² 0,00 h 0,00 h 0 W/m² 10,0 km/h (2 Bft) 97,11 %
04.12.2025 05:00 4,9 °C 4,4 °C 1,6 °C 98 % 1009,5 hPa 0,0 l/m² 0,00 h 0,00 h 0 W/m² 12,6 km/h (3 Bft) 98,34 %
04.12.2025 06:00 4,7 °C 4,1 °C 1,1 °C 98 % 1009,0 hPa 0,0 l/m² 0,00 h 0,00 h 0 W/m² 13,0 km/h (3 Bft) 96,24 %
04.12.2025 07:00 4,5 °C 3,9 °C 1,1 °C 98 % 1008,8 hPa 0,0 l/m² 0,00 h 0,00 h 0 W/m² 15,8 km/h (3 Bft) 98,41 %
04.12.2025 08:00 4,3 °C 3,9 °C 0,9 °C 98 % 1008,7 hPa 0,0 l/m² 0,00 h 0,00 h 11 W/m² 20,9 km/h (4 Bft) 95,89 %
04.12.2025 09:00 4,2 °C 4,0 °C 0,9 °C 98 % 1008,6 hPa 0,0 l/m² 0,00 h 0,00 h 30 W/m² 17,6 km/h (3 Bft) 97,10 %
04.12.2025 10:00 4,5 °C 4,6 °C 1,4 °C 98 % 1008,4 hPa 0,0 l/m² 0,00 h 0,00 h 60 W/m² 19,1 km/h (3 Bft) 96,75 %
04.12.2025 11:00 5,1 °C 5,6 °C 1,9 °C 97 % 1007,9 hPa 0,0 l/m² 0,53 h 0,00 h 143 W/m² 20,9 km/h (4 Bft) 97,04 %
04.12.2025 12:00 6,2 °C 10,0 °C 2,6 °C 93 % 1007,2 hPa 0,0 l/m² 0,95 h 0,00 h 252 W/m² 20,6 km/h (4 Bft) 97,59 %
04.12.2025 13:00 7,0 °C 10,1 °C 2,8 °C 88 % 1006,3 hPa 0,0 l/m² 1,02 h 0,00 h 228 W/m² 20,1 km/h (4 Bft) 96,61 %
04.12.2025 14:00 6,7 °C 7,4 °C 2,3 °C 87 % 1005,8 hPa 0,0 l/m² 0,92 h 0,00 h 142 W/m² 20,4 km/h (4 Bft) 97,55 %
04.12.2025 15:00 5,7 °C 4,9 °C 1,7 °C 89 % 1005,4 hPa 0,0 l/m² 0,00 h 0,00 h 27 W/m² 16,6 km/h (3 Bft) 97,27 %
04.12.2025 16:00 5,1 °C 4,4 °C 1,1 °C 90 % 1005,3 hPa 0,0 l/m² 0,00 h 0,00 h 5 W/m² 17,0 km/h (3 Bft) 97,21 %
04.12.2025 17:00 4,8 °C 4,2 °C 1,1 °C 91 % 1005,5 hPa 0,0 l/m² 0,00 h 0,00 h 0 W/m² 19,5 km/h (3 Bft) 98,71 %
04.12.2025 18:00 4,7 °C 4,1 °C 1,1 °C 92 % 1005,7 hPa 0,0 l/m² 0,00 h 0,00 h 0 W/m² 20,1 km/h (4 Bft) 96,21 %
04.12.2025 19:00 4,7 °C 3,9 °C 0,6 °C 93 % 1005,9 hPa 0,0 l/m² 0,00 h 0,07 h 0 W/m² 19,7 km/h (3 Bft) 96,18 %
04.12.2025 20:00 4,3 °C 3,8 °C 0,6 °C 93 % 1006,1 hPa 0,0 l/m² 0,00 h 0,00 h 0 W/m² 20,2 km/h (4 Bft) 98,32 %
04.12.2025 21:00 4,1 °C 3,3 °C 0,2 °C 93 % 1006,1 hPa 0,0 l/m² 0,00 h 0,00 h 0 W/m² 19,3 km/h (3 Bft) 95,05 %
04.12.2025 22:00 3,9 °C 3,3 °C 0,1 °C 93 % 1006,3 hPa 0,0 l/m² 0,00 h 0,00 h 0 W/m² 16,5 km/h (3 Bft) 97,79 %
04.12.2025 23:00 4,2 °C 3,8 °C 0,6 °C 94 % 1006,7 hPa 0,0 l/m² 0,00 h 0,00 h 0 W/m² 16,1 km/h (3 Bft) 95,32 %
05.12.2025 00:00 4,4 °C 3,9 °C 0,6 °C 94 % 1007,0 hPa 0,0 l/m² 0,00 h 0,00 h 0 W/m² 17,2 km/h (3 Bft) 97,36 %
05.12.2025 01:00 4,4 °C 3,9 °C 0,6 °C 94 % 1007,3 hPa 0,2 l/m² 0,00 h 0,00 h 0 W/m² 15,4 km/h (3 Bft) 97,35 %
05.12.2025 02:00 4,4 °C 3,9 °C 0,6 °C 95 % 1007,7 hPa 0,2 l/m² 0,00 h 0,07 h 0 W/m² 12,9 km/h (3 Bft) 97,96 %
05.12.2025 03:00 4,3 °C 3,8 °C 0,6 °C 96 % 1008,1 hPa 0,0 l/m² 0,00 h 0,10 h 0 W/m² 10,0 km/h (2 Bft) 96,65 %
05.12.2025 04:00 4,3 °C 3,9 °C 0,6 °C 96 % 1008,4 hPa 0,0 l/m² 0,00 h 0,00 h 0 W/m² 12,1 km/h (2 Bft) 94,17 %
05.12.2025 05:00 4,1 °C 3,4 °C 0,2 °C 97 % 1008,8 hPa 0,0 l/m² 0,00 h 0,00 h 0 W/m² 12,9 km/h (3 Bft) 96,70 %
05.12.2025 06:00 3,7 °C 2,9 °C 0,0 °C 97 % 1009,5 hPa 0,0 l/m² 0,00 h 0,00 h 0 W/m² 8,2 km/h (2 Bft) 96,47 %
05.12.2025 07:00 3,7 °C 3,3 °C 0,5 °C 97 % 1010,1 hPa 0,0 l/m² 0,00 h 0,00 h 0 W/m² 7,8 km/h (2 Bft) 94,03 %
05.12.2025 08:00 3,9 °C 3,5 °C 0,6 °C 97 % 1010,8 hPa 0,0 l/m² 0,00 h 0,00 h 9 W/m² 6,7 km/h (2 Bft) 98,18 %
05.12.2025 09:00 4,2 °C 4,2 °C 1,1 °C 97 % 1011,1 hPa 0,0 l/m² 0,00 h 0,00 h 29 W/m² 6,5 km/h (2 Bft) 96,39 %
05.12.2025 10:00 4,8 °C 4,9 °C 1,8 °C 98 % 1011,6 hPa 0,0 l/m² 0,00 h 0,00 h 66 W/m² 9,0 km/h (2 Bft) 96,74 %
05.12.2025 11:00 5,4 °C 6,2 °C 2,6 °C 98 % 1011,8 hPa 0,0 l/m² 0,00 h 0,00 h 100 W/m² 5,2 km/h (1 Bft) 97,33 %
05.12.2025 12:00 6,6 °C 10,8 °C 3,6 °C 98 % 1011,7 hPa 0,0 l/m² 0,50 h 0,00 h 199 W/m² 6,3 km/h (2 Bft) 95,80 %
05.12.2025 13:00 8,6 °C 12,6 °C 4,3 °C 91 % 1011,8 hPa 0,0 l/m² 0,78 h 0,00 h 199 W/m² 9,7 km/h (2 Bft) 98,01 %
05.12.2025 14:00 8,1 °C 8,8 °C 3,3 °C 87 % 1012,0 hPa 0,0 l/m² 0,75 h 0,00 h 139 W/m² 8,0 km/h (2 Bft) 99,14 %
05.12.2025 15:00 6,2 °C 5,0 °C 1,5 °C 90 % 1012,3 hPa 0,0 l/m² 0,08 h 0,00 h 23 W/m² 1,3 km/h (1 Bft) 94,53 %
05.12.2025 16:00 5,1 °C 3,3 °C 0,0 °C 91 % 1012,2 hPa 0,0 l/m² 0,00 h 0,00 h 7 W/m² 0,7 km/h (0 Bft) 98,77 %
05.12.2025 17:00 4,5 °C 3,3 °C 0,4 °C 93 % 1012,2 hPa 0,2 l/m² 0,00 h 0,00 h 0 W/m² 1,9 km/h (1 Bft) 97,30 %
05.12.2025 18:00 4,2 °C 3,3 °C 0,4 °C 94 % 1011,9 hPa 0,0 l/m² 0,00 h 0,00 h 0 W/m² 3,8 km/h (1 Bft) 97,66 %
05.12.2025 19:00 3,8 °C 3,2 °C 0,3 °C 95 % 1011,6 hPa 0,0 l/m² 0,00 h 0,00 h 0 W/m² 11,1 km/h (2 Bft) 96,80 %
05.12.2025 20:00 3,7 °C 2,9 °C 0,0 °C 95 % 1011,2 hPa 0,0 l/m² 0,00 h 0,00 h 0 W/m² 11,4 km/h (2 Bft) 99,14 %
05.12.2025 21:00 3,6 °C 2,9 °C 0,0 °C 94 % 1010,9 hPa 0,0 l/m² 0,00 h 0,00 h 0 W/m² 14,2 km/h (3 Bft) 94,61 %
05.12.2025 22:00 3,8 °C 3,3 °C 0,1 °C 95 % 1010,3 hPa 0,0 l/m² 0,00 h 0,00 h 0 W/m² 18,7 km/h (3 Bft) 97,35 %
05.12.2025 23:00 4,1 °C 3,6 °C 0,6 °C 95 % 1009,0 hPa 0,0 l/m² 0,00 h 0,00 h 0 W/m² 18,4 km/h (3 Bft) 99,11 %
06.12.2025 00:00 4,4 °C 3,9 °C 0,6 °C 94 % 1008,3 hPa 0,0 l/m² 0,00 h 0,00 h 0 W/m² 20,4 km/h (4 Bft) 97,01 %
06.12.2025 01:00 4,5 °C 4,0 °C 1,0 °C 94 % 1007,3 hPa 0,0 l/m² 0,00 h 0,00 h 0 W/m² 24,4 km/h (4 Bft) 99,34 %
06.12.2025 02:00 4,9 °C 4,4 °C 1,3 °C 92 % 1006,7 hPa 0,0 l/m² 0,00 h 0,00 h 0 W/m² 24,4 km/h (4 Bft) 96,17 %
06.12.2025 03:00 5,2 °C 4,2 °C 0,7 °C 92 % 1005,9 hPa 1,2 l/m² 0,00 h 0,80 h 0 W/m² 23,5 km/h (4 Bft) 96,63 %
06.12.2025 04:00 5,1 °C 4,1 °C 0,6 °C 93 % 1004,4 hPa 0,5 l/m² 0,00 h 0,23 h 0 W/m² 26,1 km/h (4 Bft) 96,80 %
06.12.2025 05:00 5,1 °C 4,0 °C 0,6 °C 94 % 1004,2 hPa 0,2 l/m² 0,00 h 0,20 h 0 W/m² 26,8 km/h (4 Bft) 96,10 %
06.12.2025 06:00 4,9 °C 3,9 °C 0,6 °C 95 % 1004,0 hPa 0,2 l/m² 0,00 h 0,32 h 0 W/m² 26,4 km/h (4 Bft) 97,21 %
06.12.2025 07:00 4,8 °C 4,0 °C 1,0 °C 96 % 1003,6 hPa 0,0 l/m² 0,00 h 0,00 h 0 W/m² 24,2 km/h (4 Bft) 97,25 %
06.12.2025 08:00 5,2 °C 4,7 °C 1,1 °C 96 % 1003,8 hPa 0,0 l/m² 0,00 h 0,00 h 8 W/m² 19,4 km/h (3 Bft) 95,63 %
06.12.2025 09:00 5,8 °C 5,0 °C 1,7 °C 95 % 1003,8 hPa 0,5 l/m² 0,00 h 0,13 h 14 W/m² 19,7 km/h (3 Bft) 98,00 %
06.12.2025 10:00 6,2 °C 5,6 °C 2,0 °C 95 % 1003,8 hPa 0,0 l/m² 0,00 h 0,00 h 33 W/m² 18,0 km/h (3 Bft) 95,90 %
06.12.2025 11:00 6,7 °C 6,6 °C 2,5 °C 95 % 1003,6 hPa 0,0 l/m² 0,00 h 0,00 h 44 W/m² 15,8 km/h (3 Bft) 99,15 %
06.12.2025 12:00 7,8 °C 8,0 °C 3,7 °C 95 % 1003,2 hPa 0,0 l/m² 0,00 h 0,00 h 81 W/m² 16,7 km/h (3 Bft) 96,85 %
06.12.2025 13:00 8,8 °C 8,5 °C 4,4 °C 93 % 1002,9 hPa 0,0 l/m² 0,00 h 0,00 h 53 W/m² 15,1 km/h (3 Bft) 97,34 %
06.12.2025 14:00 9,3 °C 8,9 °C 4,8 °C 93 % 1003,0 hPa 0,2 l/m² 0,00 h 0,10 h 33 W/m² 11,8 km/h (2 Bft) 98,36 %
06.12.2025 15:00 9,7 °C 9,1 °C 5,0 °C 93 % 1003,2 hPa 0,2 l/m² 0,00 h 0,23 h 23 W/m² 12,2 km/h (2 Bft) 96,24 %
06.12.2025 16:00 9,6 °C 8,8 °C 4,9 °C 94 % 1003,7 hPa 1,0 l/m² 0,00 h 0,23 h 0 W/m² 17,0 km/h (3 Bft) 96,46 %
06.12.2025 17:00 9,5 °C 8,5 °C 5,0 °C 95 % 1004,1 hPa 0,2 l/m² 0,00 h 0,27 h 0 W/m² 15,8 km/h (3 Bft) 97,61 %
06.12.2025 18:00 9,4 °C 8,8 °C 5,0 °C 96 % 1004,4 hPa 0,0 l/m² 0,00 h 0,00 h 0 W/m² 16,1 km/h (3 Bft) 97,09 %
06.12.2025 19:00 9,6 °C 8,9 °C 5,0 °C 95 % 1004,7 hPa 0,0 l/m² 0,00 h 0,20 h 0 W/m² 18,9 km/h (3 Bft) 97,35 %
06.12.2025 20:00 9,7 °C 8,6 °C 5,0 °C 95 % 1004,9 hPa 0,2 l/m² 0,00 h 0,20 h 0 W/m² 19,3 km/h (3 Bft) 97,90 %
06.12.2025 21:00 9,7 °C 8,7 °C 5,0 °C 94 % 1005,1 hPa 0,5 l/m² 0,00 h 0,58 h 0 W/m² 29,0 km/h (5 Bft) 98,54 %
06.12.2025 22:00 9,6 °C 8,5 °C 5,0 °C 95 % 1005,3 hPa 0,2 l/m² 0,00 h 0,17 h 0 W/m² 24,7 km/h (4 Bft) 99,34 %
06.12.2025 23:00 9,7 °C 9,1 °C 5,0 °C 94 % 1005,7 hPa 0,2 l/m² 0,00 h 0,00 h 0 W/m² 28,4 km/h (4 Bft) 99,20 %
07.12.2025 00:00 9,9 °C 9,4 °C 5,0 °C 92 % 1006,2 hPa 0,0 l/m² 0,00 h 0,00 h 0 W/m² 27,9 km/h (4 Bft) 99,93 %
07.12.2025 01:00 10,0 °C 9,3 °C 5,3 °C 91 % 1006,5 hPa 0,0 l/m² 0,00 h 0,00 h 0 W/m² 28,7 km/h (4 Bft) 97,51 %
07.12.2025 02:00 9,7 °C 8,8 °C 5,3 °C 92 % 1006,9 hPa 0,0 l/m² 0,00 h 0,00 h 0 W/m² 28,7 km/h (4 Bft) 99,93 %
07.12.2025 03:00 9,4 °C 8,8 °C 5,4 °C 93 % 1007,4 hPa 0,0 l/m² 0,00 h 0,00 h 0 W/m² 24,4 km/h (4 Bft) 99,78 %
07.12.2025 04:00 9,3 °C 8,4 °C 5,1 °C 93 % 1007,4 hPa 0,0 l/m² 0,00 h 0,00 h 0 W/m² 19,3 km/h (3 Bft) 98,10 %
07.12.2025 05:00 9,0 °C 8,0 °C 4,8 °C 93 % 1007,8 hPa 0,0 l/m² 0,00 h 0,00 h 0 W/m² 19,6 km/h (3 Bft) 99,64 %
07.12.2025 06:00 8,5 °C 7,4 °C 4,4 °C 94 % 1008,1 hPa 0,0 l/m² 0,00 h 0,00 h 0 W/m² 14,2 km/h (3 Bft) 99,05 %
07.12.2025 07:00 8,2 °C 7,4 °C 4,1 °C 95 % 1008,3 hPa 0,0 l/m² 0,00 h 0,00 h 0 W/m² 8,9 km/h (2 Bft) 96,71 %
07.12.2025 08:00 8,6 °C 8,1 °C 4,8 °C 96 % 1008,5 hPa 0,0 l/m² 0,00 h 0,00 h 8 W/m² 9,4 km/h (2 Bft) 99,85 %
07.12.2025 09:00 9,0 °C 8,6 °C 5,3 °C 97 % 1008,8 hPa 0,0 l/m² 0,00 h 0,00 h 29 W/m² 7,4 km/h (2 Bft) 97,63 %
07.12.2025 10:00 9,6 °C 9,8 °C 6,2 °C 97 % 1009,2 hPa 0,0 l/m² 0,00 h 0,00 h 58 W/m² 7,7 km/h (2 Bft) 97,38 %
07.12.2025 11:00 10,3 °C 10,6 °C 7,1 °C 96 % 1009,1 hPa 0,0 l/m² 0,00 h 0,00 h 78 W/m² 9,8 km/h (2 Bft) 98,70 %
07.12.2025 12:00 10,9 °C 10,8 °C 7,2 °C 94 % 1008,4 hPa 0,0 l/m² 0,00 h 0,00 h 76 W/m² 12,0 km/h (2 Bft) 95,74 %
07.12.2025 13:00 11,2 °C 11,2 °C 7,7 °C 93 % 1007,6 hPa 0,0 l/m² 0,00 h 0,00 h 87 W/m² 12,3 km/h (3 Bft) 98,74 %
07.12.2025 14:00 11,3 °C 10,7 °C 7,1 °C 93 % 1007,2 hPa 0,0 l/m² 0,00 h 0,03 h 45 W/m² 14,9 km/h (3 Bft) 97,64 %
07.12.2025 15:00 10,9 °C 10,0 °C 6,7 °C 95 % 1006,7 hPa 0,5 l/m² 0,00 h 0,17 h 24 W/m² 15,6 km/h (3 Bft) 96,28 %
07.12.2025 16:00 10,7 °C 9,6 °C 6,7 °C 97 % 1006,0 hPa 0,5 l/m² 0,00 h 0,17 h 6 W/m² 16,8 km/h (3 Bft) 98,16 %
07.12.2025 17:00 10,5 °C 9,4 °C 6,7 °C 98 % 1005,5 hPa 1,7 l/m² 0,00 h 0,70 h 0 W/m² 18,0 km/h (3 Bft) 97,74 %
07.12.2025 18:00 10,4 °C 9,4 °C 6,7 °C 98 % 1005,0 hPa 3,1 l/m² 0,00 h 0,70 h 0 W/m² 19,0 km/h (3 Bft) 95,79 %
07.12.2025 19:00 10,4 °C 9,4 °C 6,7 °C 99 % 1004,7 hPa 4,3 l/m² 0,00 h 0,97 h 0 W/m² 18,3 km/h (3 Bft) 99,24 %
07.12.2025 20:00 10,8 °C 10,1 °C 7,2 °C 99 % 1004,4 hPa 3,4 l/m² 0,00 h 0,78 h 0 W/m² 12,4 km/h (3 Bft) 96,09 %
07.12.2025 21:00 12,4 °C 11,7 °C 8,6 °C 100 % 1004,5 hPa 0,2 l/m² 0,00 h 0,33 h 0 W/m² 22,1 km/h (4 Bft) 97,63 %
07.12.2025 22:00 13,3 °C 12,5 °C 9,2 °C 100 % 1005,0 hPa 0,0 l/m² 0,00 h 0,00 h 0 W/m² 20,6 km/h (4 Bft) 97,89 %
07.12.2025 23:00 13,4 °C 12,7 °C 8,9 °C 97 % 1005,9 hPa 0,0 l/m² 0,00 h 0,00 h 0 W/m² 18,6 km/h (3 Bft) 98,04 %
Min-Datum _ 01.12.25 01.12.25 01.12.25 01.12.25 06.12.25 - - - - 01.12.25 04.12.25
_ Min-Zeit 08:14 07:20 07:18 14:46 13:36 - - - - 03:36 00:02
Minimum _ 1,3 °C 0,6 °C -2,2 °C 75 % 1002,8 hPa - - - - 0,0 km/h (0 Bft) 5,00 %
Max-Datum _ 07.12.25 05.12.25 07.12.25 07.12.25 01.12.25 07.12.25 04.12.25 03.12.25 01.12.25 01.12.25 01.12.25
_ Max-Zeit 22:34 13:00 22:14 20:50 01:54 19:02 12:12 20:00 12:36 21:16 00:02
Maximum _ 13,4 °C 15,6 °C 9,4 °C 100 % 1018,3 hPa 4,3 l/m² 0,08 h 0,08 h 339 W/m² 51,5 km/h
S-SO (7 Bft)
100,00 %
Durchschnitt _ 6,3 °C 5,8 °C 2,3 °C 93 % 1009,6 hPa #25,9 l/m² #8:18 h #11:26 h 64 W/m² 14,8 km/h (3 Bft) 97,20 %
© 2025 W. Hausmann